createdAt,value
2022-11-30T00:01:52.883Z,72.62
2022-11-30T00:04:22.702Z,72.78
2022-11-30T00:06:57.158Z,72.45
2022-11-30T00:09:26.905Z,72.31
2022-11-30T00:11:56.551Z,72.27
2022-11-30T00:14:26.302Z,71.98
2022-11-30T00:16:56.236Z,71.72
2022-11-30T00:19:26.101Z,71.20
2022-11-30T00:21:55.838Z,71.08
2022-11-30T00:24:25.700Z,71.41
2022-11-30T00:26:55.777Z,71.50
2022-11-30T00:29:25.746Z,71.70
2022-11-30T00:31:55.542Z,71.85
2022-11-30T00:34:25.205Z,71.71
2022-11-30T00:36:55.027Z,71.77
2022-11-30T00:39:24.806Z,71.70
2022-11-30T00:41:54.528Z,71.51
2022-11-30T00:44:24.290Z,70.92
2022-11-30T00:46:54.049Z,71.02
2022-11-30T00:49:23.934Z,71.18
2022-11-30T00:51:53.764Z,71.00
2022-11-30T00:54:23.490Z,70.96
2022-11-30T00:56:53.189Z,70.81
2022-11-30T00:59:23.024Z,70.69
2022-11-30T01:01:54.337Z,70.10
2022-11-30T01:04:24.723Z,70.24
2022-11-30T01:06:54.532Z,70.14
2022-11-30T01:09:24.255Z,70.37
2022-11-30T01:11:53.874Z,70.17
2022-11-30T01:14:23.517Z,70.12
2022-11-30T01:16:56.180Z,70.45
2022-11-30T01:19:26.932Z,70.67
2022-11-30T01:21:56.636Z,70.94
2022-11-30T01:24:26.349Z,70.95
2022-11-30T01:26:56.085Z,70.15
2022-11-30T01:29:25.946Z,69.23
2022-11-30T01:31:55.597Z,69.62
2022-11-30T01:34:25.362Z,68.86
2022-11-30T01:36:55.064Z,68.45
2022-11-30T01:39:24.901Z,68.33
2022-11-30T01:41:54.779Z,68.29
2022-11-30T01:44:53.506Z,68.26
2022-11-30T01:47:24.176Z,68.00
2022-11-30T01:49:54.800Z,68.34
2022-11-30T01:52:25.005Z,67.85
2022-11-30T01:54:55.521Z,67.52
2022-11-30T01:57:26.638Z,67.57
2022-11-30T01:59:56.488Z,67.73
2022-11-30T02:02:27.984Z,67.97
2022-11-30T02:04:57.800Z,67.94
2022-11-30T02:07:27.756Z,67.70
2022-11-30T02:09:57.485Z,67.50
2022-11-30T02:12:29.028Z,67.61
2022-11-30T02:14:59.539Z,67.27
2022-11-30T02:17:30.025Z,67.63
2022-11-30T02:20:17.053Z,67.80
2022-11-30T02:22:50.752Z,67.23
2022-11-30T02:25:21.776Z,67.41
2022-11-30T02:27:55.523Z,67.35
2022-11-30T02:30:25.380Z,67.68
2022-11-30T02:32:55.717Z,67.99
2022-11-30T02:35:28.287Z,68.09
2022-11-30T02:37:58.329Z,67.90
2022-11-30T02:40:28.172Z,68.14
2022-11-30T02:42:57.989Z,68.15
2022-11-30T02:45:30.013Z,67.99
2022-11-30T02:48:01.158Z,67.80
2022-11-30T02:50:32.067Z,68.27
2022-11-30T02:53:01.929Z,68.37
2022-11-30T02:55:32.554Z,68.31
2022-11-30T02:58:02.745Z,68.26
2022-11-30T03:00:32.648Z,68.47
2022-11-30T03:03:02.406Z,68.24
2022-11-30T03:05:32.173Z,68.32
2022-11-30T03:08:02.142Z,68.27
2022-11-30T03:10:32.123Z,68.24
2022-11-30T03:13:02.131Z,68.48
2022-11-30T03:15:32.140Z,69.17
2022-11-30T03:18:04.201Z,69.20
2022-11-30T03:20:33.973Z,68.77
2022-11-30T03:23:03.655Z,68.94
2022-11-30T03:25:33.397Z,68.86
2022-11-30T03:28:03.224Z,69.13
2022-11-30T03:30:32.993Z,69.94
2022-11-30T03:33:02.710Z,70.00
2022-11-30T03:35:32.407Z,69.86
2022-11-30T03:38:02.193Z,69.87
2022-11-30T03:40:31.912Z,70.07
2022-11-30T03:43:01.639Z,69.98
2022-11-30T03:45:31.514Z,69.61
2022-11-30T03:48:01.256Z,70.19
2022-11-30T03:50:30.922Z,70.31
2022-11-30T03:53:00.610Z,70.54
2022-11-30T03:55:30.403Z,70.75
2022-11-30T03:58:00.150Z,70.42
2022-11-30T04:00:29.850Z,70.29
2022-11-30T04:02:59.764Z,70.04
2022-11-30T04:05:29.651Z,69.85
2022-11-30T04:07:59.536Z,69.76
2022-11-30T04:10:29.454Z,69.60
2022-11-30T04:12:59.139Z,69.19
2022-11-30T04:15:28.845Z,69.06
2022-11-30T04:17:58.502Z,68.91
2022-11-30T04:20:28.301Z,68.91
2022-11-30T04:22:59.765Z,68.98
2022-11-30T04:25:29.536Z,69.29
2022-11-30T04:27:59.212Z,69.18
2022-11-30T04:30:28.955Z,68.53
2022-11-30T04:32:59.103Z,68.53
2022-11-30T04:35:28.822Z,68.37
2022-11-30T04:37:58.924Z,68.20
2022-11-30T04:40:28.767Z,68.42
2022-11-30T04:42:58.471Z,68.56
2022-11-30T04:45:32.567Z,68.69
2022-11-30T04:48:05.209Z,68.76
2022-11-30T04:50:34.952Z,68.42
2022-11-30T04:53:04.715Z,68.20
2022-11-30T04:55:34.531Z,68.13
2022-11-30T04:58:04.424Z,68.44
2022-11-30T05:00:34.154Z,68.60
2022-11-30T05:03:04.319Z,68.62
2022-11-30T05:05:34.181Z,68.80
2022-11-30T05:08:03.981Z,69.13
2022-11-30T05:10:34.188Z,69.01
2022-11-30T05:13:04.045Z,68.85
2022-11-30T05:15:34.055Z,68.86
2022-11-30T05:18:03.998Z,68.75
2022-11-30T05:20:33.836Z,68.41
2022-11-30T05:23:03.730Z,68.76
2022-11-30T05:25:33.954Z,68.53
2022-11-30T05:28:04.309Z,68.55
2022-11-30T05:30:34.736Z,68.49
2022-11-30T05:33:04.829Z,68.61
2022-11-30T05:35:35.094Z,68.46
2022-11-30T05:38:05.165Z,68.14
2022-11-30T05:40:35.064Z,68.07
2022-11-30T05:43:05.555Z,67.93
2022-11-30T05:45:35.743Z,67.93
2022-11-30T05:48:06.023Z,67.78
2022-11-30T05:50:36.968Z,67.34
2022-11-30T05:53:08.125Z,67.28
2022-11-30T05:55:38.358Z,67.57
2022-11-30T05:58:08.024Z,67.77
2022-11-30T06:00:37.901Z,67.35
2022-11-30T06:03:07.717Z,66.90
2022-11-30T06:05:37.820Z,66.72
2022-11-30T06:08:08.056Z,66.95
2022-11-30T06:10:38.025Z,66.98
2022-11-30T06:13:10.043Z,66.55
2022-11-30T06:15:40.060Z,66.51
2022-11-30T06:18:10.145Z,66.39
2022-11-30T06:20:40.317Z,66.09
2022-11-30T06:23:10.335Z,66.02
2022-11-30T06:25:40.517Z,66.03
2022-11-30T06:28:11.818Z,65.60
2022-11-30T06:30:41.741Z,65.26
2022-11-30T06:33:11.551Z,64.78
2022-11-30T06:35:45.446Z,64.69
2022-11-30T06:38:15.698Z,63.50
2022-11-30T06:40:45.530Z,63.71
2022-11-30T06:43:15.545Z,63.30
2022-11-30T06:45:46.200Z,63.12
2022-11-30T06:48:16.378Z,63.11
2022-11-30T06:50:50.049Z,61.93
2022-11-30T06:53:20.446Z,62.19
2022-11-30T06:55:50.188Z,62.20
2022-11-30T06:58:20.040Z,61.45
2022-11-30T07:00:49.961Z,61.09
2022-11-30T07:03:19.945Z,61.31
2022-11-30T07:05:49.875Z,61.54
2022-11-30T07:08:19.743Z,60.89
2022-11-30T07:10:49.681Z,60.92
2022-11-30T07:13:19.682Z,60.81
2022-11-30T07:15:49.631Z,60.57
2022-11-30T07:18:19.626Z,60.61
2022-11-30T07:20:49.551Z,60.05
2022-11-30T07:23:37.186Z,59.84
2022-11-30T07:26:10.181Z,59.59
2022-11-30T07:28:40.260Z,59.49
2022-11-30T07:31:17.036Z,59.81
2022-11-30T07:33:47.084Z,59.70
2022-11-30T07:36:17.374Z,59.70
2022-11-30T07:38:47.413Z,59.76
2022-11-30T07:41:17.408Z,59.98
2022-11-30T07:43:47.400Z,59.83
2022-11-30T07:46:17.413Z,59.83
2022-11-30T07:48:47.524Z,59.68
2022-11-30T07:51:17.835Z,59.85
2022-11-30T07:53:47.928Z,59.75
2022-11-30T07:56:18.497Z,59.20
2022-11-30T07:58:48.573Z,58.65
2022-11-30T08:01:19.451Z,58.51
2022-11-30T08:03:49.502Z,58.17
2022-11-30T08:06:20.754Z,58.05
2022-11-30T08:08:51.051Z,58.23
2022-11-30T08:11:22.107Z,57.74
2022-11-30T08:13:51.834Z,57.71
2022-11-30T08:16:22.410Z,57.76
2022-11-30T08:18:52.421Z,57.51
2022-11-30T08:21:22.397Z,56.99
2022-11-30T08:23:55.720Z,56.26
2022-11-30T08:26:26.244Z,56.49
2022-11-30T08:28:56.364Z,56.40
2022-11-30T08:31:56.685Z,55.18
2022-11-30T08:34:17.003Z,55.39
2022-11-30T08:36:47.292Z,55.75
2022-11-30T08:39:20.397Z,55.17
2022-11-30T08:41:50.256Z,55.54
2022-11-30T08:44:20.123Z,55.55
2022-11-30T08:46:51.793Z,55.24
2022-11-30T08:49:23.940Z,55.33
2022-11-30T08:54:47.211Z,55.07
2022-11-30T08:57:18.171Z,55.91
2022-11-30T08:59:47.924Z,55.63
2022-11-30T09:02:18.980Z,55.60
2022-11-30T09:04:51.503Z,55.08
2022-11-30T09:07:21.339Z,55.11
2022-11-30T09:09:54.090Z,55.14
2022-11-30T09:12:24.235Z,54.54
2022-11-30T09:14:58.328Z,54.55
2022-11-30T09:17:28.932Z,54.49
2022-11-30T09:19:59.180Z,54.51
2022-11-30T09:22:29.376Z,53.98
2022-11-30T09:24:59.371Z,52.88
2022-11-30T09:27:30.750Z,52.36
2022-11-30T09:30:00.780Z,52.53
2022-11-30T09:32:30.919Z,51.70
2022-11-30T09:35:00.799Z,51.81
2022-11-30T09:37:30.715Z,52.15
2022-11-30T09:40:00.649Z,51.55
2022-11-30T09:42:42.969Z,50.55
2022-11-30T09:45:15.510Z,49.94
2022-11-30T09:47:53.962Z,50.62
2022-11-30T09:50:24.535Z,50.25
2022-11-30T09:52:55.077Z,48.93
2022-11-30T09:55:26.041Z,48.85
2022-11-30T09:57:56.546Z,49.49
2022-11-30T10:00:26.559Z,49.54
2022-11-30T10:02:57.417Z,48.72
2022-11-30T10:05:28.350Z,48.42
2022-11-30T10:08:04.471Z,47.67
2022-11-30T10:10:36.102Z,47.32
2022-11-30T10:13:10.274Z,47.04
2022-11-30T10:15:42.789Z,45.56
2022-11-30T10:18:14.271Z,45.61
2022-11-30T10:20:47.524Z,45.01
2022-11-30T10:23:24.599Z,45.23
2022-11-30T10:25:56.225Z,45.81
2022-11-30T10:31:18.169Z,45.55
2022-11-30T10:33:48.917Z,44.64
2022-11-30T10:36:24.142Z,43.93
2022-11-30T10:38:54.522Z,43.98
2022-11-30T10:41:24.292Z,44.07
2022-11-30T10:43:54.333Z,44.56
2022-11-30T10:46:25.149Z,44.07
2022-11-30T10:48:55.852Z,44.63
2022-11-30T10:51:25.576Z,45.13
2022-11-30T10:53:55.389Z,45.03
2022-11-30T10:56:25.027Z,44.99
2022-11-30T10:58:56.001Z,44.78
2022-11-30T11:01:32.771Z,45.07
2022-11-30T11:04:15.540Z,45.50
2022-11-30T11:06:46.307Z,45.55
2022-11-30T11:09:35.463Z,45.74
2022-11-30T11:12:05.697Z,45.73
2022-11-30T11:14:38.206Z,44.39
2022-11-30T11:17:08.752Z,44.08
2022-11-30T11:19:39.425Z,44.00
2022-11-30T11:22:16.300Z,44.05
2022-11-30T11:24:46.310Z,43.84
2022-11-30T11:27:22.892Z,43.69
2022-11-30T11:29:59.475Z,43.60
2022-11-30T11:32:30.603Z,43.38
2022-11-30T11:35:00.420Z,42.94
2022-11-30T11:37:31.758Z,42.69
2022-11-30T11:40:06.523Z,42.58
2022-11-30T11:42:38.643Z,43.05
2022-11-30T11:45:15.999Z,43.31
2022-11-30T11:47:49.322Z,43.47
2022-11-30T11:51:05.078Z,43.44
2022-11-30T11:53:26.222Z,43.22
2022-11-30T11:55:57.376Z,43.32
2022-11-30T11:58:29.612Z,43.50
2022-11-30T12:01:17.215Z,43.74
2022-11-30T12:03:52.371Z,44.07
2022-11-30T12:06:23.125Z,44.10
2022-11-30T12:08:53.814Z,44.05
2022-11-30T12:11:24.782Z,44.23
2022-11-30T12:13:55.305Z,44.48
2022-11-30T12:16:32.266Z,44.40
2022-11-30T12:19:05.937Z,44.66
2022-11-30T12:21:41.062Z,44.80
2022-11-30T12:24:27.724Z,45.07
2022-11-30T12:26:58.710Z,45.36
2022-11-30T12:29:30.035Z,45.47
2022-11-30T12:32:08.730Z,45.58
2022-11-30T12:34:43.468Z,45.90
2022-11-30T12:37:15.564Z,45.95
2022-11-30T12:39:46.504Z,46.04
2022-11-30T12:42:17.177Z,46.15
2022-11-30T12:44:49.482Z,46.27
2022-11-30T12:47:26.093Z,46.42
2022-11-30T12:49:59.624Z,46.69
2022-11-30T12:52:33.761Z,46.66
2022-11-30T12:55:06.313Z,46.86
2022-11-30T12:57:36.584Z,46.93
2022-11-30T13:00:08.298Z,47.00
2022-11-30T13:02:46.517Z,47.03
2022-11-30T13:05:17.762Z,47.11
2022-11-30T13:07:48.171Z,47.35
2022-11-30T13:10:20.529Z,47.28
2022-11-30T13:12:51.755Z,47.27
2022-11-30T13:15:22.575Z,47.19
2022-11-30T13:17:52.768Z,47.14
2022-11-30T13:20:23.715Z,47.18
2022-11-30T13:22:54.477Z,47.23
2022-11-30T13:26:05.831Z,47.25
2022-11-30T13:28:18.726Z,47.36
2022-11-30T13:30:50.075Z,47.60
2022-11-30T13:33:33.262Z,47.78
2022-11-30T13:36:03.316Z,47.74
2022-11-30T13:38:37.809Z,47.79
2022-11-30T13:41:08.954Z,47.81
2022-11-30T13:43:41.639Z,47.80
2022-11-30T13:46:16.468Z,47.74
2022-11-30T13:48:46.909Z,47.68
2022-11-30T13:51:18.867Z,47.86
2022-11-30T13:53:49.027Z,48.00
2022-11-30T13:56:33.895Z,47.87
2022-11-30T13:59:36.692Z,47.80
2022-11-30T14:02:23.470Z,48.03
2022-11-30T14:04:53.267Z,48.10
2022-11-30T14:07:39.270Z,48.17
2022-11-30T14:10:22.546Z,48.13
2022-11-30T14:13:00.397Z,48.06
2022-11-30T14:15:47.015Z,48.13
2022-11-30T14:18:22.425Z,48.20
2022-11-30T14:20:54.146Z,48.18
2022-11-30T14:23:24.868Z,48.22
2022-11-30T14:25:55.523Z,48.20
2022-11-30T14:28:26.124Z,48.16
2022-11-30T14:30:56.384Z,48.40
2022-11-30T14:33:27.361Z,48.45
2022-11-30T14:35:58.031Z,48.58
2022-11-30T14:38:28.469Z,48.49
2022-11-30T14:40:58.668Z,48.53
2022-11-30T14:43:30.142Z,48.56
2022-11-30T14:46:04.581Z,48.55
2022-11-30T14:48:35.221Z,48.57
2022-11-30T14:51:05.021Z,48.67
2022-11-30T14:53:37.799Z,48.73
2022-11-30T14:56:09.845Z,48.83
2022-11-30T14:58:41.850Z,48.96
2022-11-30T15:01:17.542Z,49.03
2022-11-30T15:03:47.351Z,49.05
2022-11-30T15:06:17.695Z,49.08
2022-11-30T15:08:48.828Z,49.17
2022-11-30T15:11:19.889Z,49.26
2022-11-30T15:13:50.469Z,49.26
2022-11-30T18:13:16.080Z,49.84
2022-11-30T18:15:46.857Z,49.58
2022-11-30T18:18:17.176Z,49.36
2022-11-30T18:20:49.241Z,48.91
2022-11-30T18:23:19.991Z,49.02
2022-11-30T18:25:51.222Z,49.09
2022-11-30T18:28:21.666Z,49.29
2022-11-30T18:30:55.630Z,49.32
2022-11-30T18:33:26.357Z,49.23
2022-11-30T18:36:00.166Z,49.11
2022-11-30T18:38:35.863Z,49.32
2022-11-30T18:41:09.082Z,49.39
2022-11-30T18:43:39.293Z,49.24
2022-11-30T18:46:10.586Z,49.27
2022-11-30T18:48:41.391Z,49.26
2022-11-30T18:51:13.192Z,49.41
2022-11-30T18:53:45.261Z,49.28
2022-11-30T18:56:16.482Z,49.45
2022-11-30T18:58:46.737Z,49.32
2022-11-30T19:01:17.741Z,49.39
2022-11-30T19:03:52.510Z,49.37
2022-11-30T19:06:25.070Z,49.49
2022-11-30T19:08:55.661Z,49.49
2022-11-30T19:11:26.452Z,49.33
2022-11-30T19:13:57.031Z,49.54
2022-11-30T19:16:27.560Z,49.50
2022-11-30T19:19:00.325Z,49.66
2022-11-30T19:21:31.051Z,49.69
2022-11-30T19:24:01.415Z,49.59
2022-11-30T19:26:32.815Z,49.62
2022-11-30T19:29:03.190Z,49.59
2022-11-30T19:31:33.415Z,49.55
2022-11-30T19:34:12.017Z,49.71
2022-11-30T19:36:43.746Z,49.91
2022-11-30T19:39:14.705Z,49.96
2022-11-30T19:41:47.871Z,49.96
2022-11-30T19:44:18.606Z,50.13
2022-11-30T19:46:49.666Z,50.21
2022-11-30T19:49:20.965Z,50.29
2022-11-30T19:51:52.166Z,50.34
2022-11-30T19:54:22.561Z,50.42
2022-11-30T19:56:55.017Z,50.37
2022-11-30T19:59:26.020Z,50.43
2022-11-30T20:01:57.020Z,50.50
2022-11-30T20:04:27.723Z,50.43
2022-11-30T20:06:59.445Z,50.28
2022-11-30T20:09:30.475Z,50.49
2022-11-30T20:12:01.382Z,50.51
2022-11-30T20:14:32.648Z,50.51
2022-11-30T20:17:03.593Z,50.62
2022-11-30T20:19:34.532Z,50.71
2022-11-30T20:22:06.934Z,50.70
2022-11-30T20:24:38.292Z,50.85
2022-11-30T20:27:09.522Z,50.93
2022-11-30T20:29:39.667Z,51.04
2022-11-30T20:32:10.681Z,50.98
2022-11-30T20:34:43.760Z,51.21
2022-11-30T20:37:14.064Z,51.63
2022-11-30T20:39:46.301Z,51.65
2022-11-30T20:42:17.446Z,51.80
2022-11-30T20:44:49.043Z,51.82
2022-11-30T20:47:19.918Z,51.84
2022-11-30T20:49:49.921Z,51.98
2022-11-30T20:52:20.284Z,52.12
2022-11-30T20:54:50.245Z,52.25
2022-11-30T20:57:20.916Z,52.49
2022-11-30T20:59:50.937Z,52.37
2022-11-30T21:02:20.778Z,52.17
2022-11-30T21:04:50.795Z,52.05
2022-11-30T21:07:20.813Z,52.11
2022-11-30T21:14:06.190Z,51.90
2022-11-30T21:16:36.127Z,51.74
2022-11-30T21:19:06.084Z,51.77
2022-11-30T21:21:36.372Z,51.74
2022-11-30T21:24:07.024Z,51.60
2022-11-30T21:26:37.301Z,51.59
2022-11-30T21:29:07.742Z,51.53
2022-11-30T21:31:37.617Z,51.51
2022-11-30T21:34:07.884Z,51.68
2022-11-30T21:36:37.851Z,51.63
2022-11-30T21:39:08.195Z,51.82
2022-11-30T21:41:38.851Z,52.05
2022-11-30T21:44:09.208Z,52.32
2022-11-30T21:46:39.388Z,52.39
2022-11-30T21:49:09.998Z,52.58
2022-11-30T21:51:39.885Z,52.72
2022-11-30T21:54:10.167Z,52.65
2022-11-30T21:56:40.463Z,52.59
2022-11-30T21:59:10.399Z,52.66
2022-11-30T22:01:40.791Z,52.86
2022-11-30T22:04:10.980Z,52.97
2022-11-30T22:06:41.334Z,53.14
2022-11-30T22:09:12.410Z,53.01
2022-11-30T22:11:42.625Z,53.02
2022-11-30T22:14:13.605Z,53.20
2022-11-30T22:16:43.714Z,53.31
2022-11-30T22:19:13.663Z,53.29
2022-11-30T22:21:49.475Z,53.45
2022-11-30T22:24:20.412Z,53.69
2022-11-30T22:26:50.481Z,53.63
2022-11-30T22:29:20.681Z,53.71
2022-11-30T22:31:50.933Z,53.66
2022-11-30T22:34:20.997Z,53.96
2022-11-30T22:36:51.242Z,54.17
2022-11-30T22:39:21.466Z,54.12
2022-11-30T22:41:55.694Z,54.16
2022-11-30T22:44:26.688Z,54.28
2022-11-30T22:46:57.058Z,54.42
2022-11-30T22:49:27.020Z,54.33
2022-11-30T22:51:57.009Z,54.36
2022-11-30T22:54:26.936Z,54.51
2022-11-30T22:56:56.964Z,54.59
2022-11-30T22:59:26.847Z,54.63
2022-11-30T23:01:56.781Z,54.68
2022-11-30T23:04:26.851Z,54.84
2022-11-30T23:06:58.057Z,54.99
2022-11-30T23:09:27.963Z,55.10
2022-11-30T23:11:57.961Z,55.13
2022-11-30T23:14:27.740Z,55.24
2022-11-30T23:16:57.685Z,55.33
2022-11-30T23:19:27.754Z,55.36
2022-11-30T23:21:57.746Z,55.61
2022-11-30T23:24:27.750Z,55.84
2022-11-30T23:26:57.753Z,56.05
2022-11-30T23:29:27.699Z,56.12
2022-11-30T23:31:57.923Z,56.21
2022-11-30T23:34:27.889Z,56.41
2022-11-30T23:36:57.983Z,56.64
2022-11-30T23:39:28.299Z,56.73
2022-11-30T23:41:58.654Z,56.74
2022-11-30T23:44:28.482Z,56.91
2022-11-30T23:46:58.689Z,57.20
2022-11-30T23:49:28.782Z,57.28
2022-11-30T23:52:00.304Z,57.61
2022-11-30T23:54:30.286Z,57.71
2022-11-30T23:57:00.508Z,57.75
2022-11-30T23:59:30.515Z,57.91
